Time;durP1;ratioP1;P1;durP2;ratioP2;P2;SDS_P1;SDS_P2;PMS_P1;PMS_P2;Temp;Humidity;BMP_temperature;BMP_pressure;BME280_temperature;BME280_humidity;BME280_pressure;Samples;Min_cycle;Max_cycle;Signal;HPM_P1;HPM_P2
2021/08/20 00:02:10;;;;;;;4.03;3.05;;;20.20;74.70;;;;;;5090196;28;20123;-69
2021/08/20 00:04:36;;;;;;;3.75;3.10;;;20.10;74.70;;;;;;5077347;28;20115;-70
2021/08/20 00:07:02;;;;;;;3.80;3.20;;;20.10;74.70;;;;;;5077869;28;20053;-69
2021/08/20 00:09:28;;;;;;;3.47;3.13;;;20.10;74.70;;;;;;5077863;28;20436;-69
2021/08/20 00:11:54;;;;;;;4.05;3.35;;;20.10;74.70;;;;;;5077833;28;20050;-69
2021/08/20 00:14:20;;;;;;;3.80;3.03;;;20.10;74.70;;;;;;5077599;28;20045;-69
2021/08/20 00:16:46;;;;;;;4.13;3.05;;;20.10;74.70;;;;;;5077284;28;20072;-69
2021/08/20 00:19:13;;;;;;;4.72;3.60;;;20.10;74.70;;;;;;5077406;28;20036;-69
2021/08/20 00:21:39;;;;;;;3.55;3.00;;;20.10;74.70;;;;;;5077243;28;20072;-69
2021/08/20 00:24:07;;;;;;;3.80;3.08;;;20.10;74.70;;;;;;5077376;28;20044;-69
2021/08/20 00:26:33;;;;;;;3.92;3.40;;;20.10;74.70;;;;;;5077013;28;20068;-69
2021/08/20 00:28:59;;;;;;;3.95;3.50;;;20.10;74.70;;;;;;5077707;28;20289;-69
2021/08/20 00:31:25;;;;;;;4.35;3.20;;;20.10;74.70;;;;;;5085350;28;20359;-69
2021/08/20 00:33:51;;;;;;;5.55;3.50;;;20.10;74.70;;;;;;5097401;28;20036;-68
2021/08/20 00:36:16;;;;;;;4.00;3.47;;;20.10;74.70;;;;;;5097237;28;20090;-69
2021/08/20 00:38:42;;;;;;;3.92;3.53;;;20.10;74.70;;;;;;5096957;28;20048;-69
2021/08/20 00:41:12;;;;;;;4.43;3.50;;;20.10;74.70;;;;;;5096984;28;20044;-69
2021/08/20 00:43:45;;;;;;;4.22;3.75;;;20.10;74.70;;;;;;5096677;28;20040;-69
2021/08/20 00:46:12;;;;;;;3.83;3.43;;;20.10;74.70;;;;;;5097145;28;20044;-69
2021/08/20 00:48:39;;;;;;;4.40;3.80;;;20.10;74.70;;;;;;5097016;28;20048;-69
2021/08/20 00:51:33;;;;;;;5.00;3.50;;;20.10;74.70;;;;;;5096274;28;20044;-69
2021/08/20 00:53:59;;;;;;;;;;;20.10;74.60;;;;;;5094116;28;20043;-69
2021/08/20 00:56:25;;;;;;;5.10;3.70;;;20.10;74.60;;;;;;5096635;28;19916;-69
2021/08/20 00:58:51;;;;;;;4.47;4.07;;;20.10;74.80;;;;;;5096908;28;20052;-69
2021/08/20 01:01:20;;;;;;;4.38;3.72;;;20.00;74.70;;;;;;5088799;28;20340;-69
2021/08/20 01:03:47;;;;;;;4.88;3.55;;;20.10;74.70;;;;;;5076383;28;20102;-69
2021/08/20 01:06:13;;;;;;;3.83;3.38;;;20.10;74.70;;;;;;5076314;28;20427;-69
2021/08/20 01:08:40;;;;;;;4.32;3.22;;;20.10;74.70;;;;;;5076491;28;20044;-69
2021/08/20 01:11:08;;;;;;;4.88;4.32;;;20.10;74.70;;;;;;5076430;28;20040;-69
2021/08/20 01:13:37;;;;;;;4.78;3.83;;;20.10;74.70;;;;;;5076304;28;20090;-69
2021/08/20 01:16:03;;;;;;;5.13;4.38;;;20.10;74.70;;;;;;5076031;28;20070;-69
2021/08/20 01:18:30;;;;;;;7.05;4.82;;;20.10;74.70;;;;;;5076277;28;20110;-69
2021/08/20 01:20:58;;;;;;;4.47;3.80;;;20.10;74.70;;;;;;5076109;28;20052;-69
2021/08/20 01:23:26;;;;;;;5.45;4.30;;;20.10;74.70;;;;;;5076312;28;20040;-69
2021/08/20 01:25:52;;;;;;;4.90;4.13;;;20.10;74.70;;;;;;5076557;28;20036;-68
2021/08/20 01:28:19;;;;;;;4.75;4.20;;;20.00;74.70;;;;;;5075849;28;20040;-69
2021/08/20 01:30:44;;;;;;;3.95;3.55;;;20.00;74.70;;;;;;5077825;28;20128;-68
2021/08/20 01:33:10;;;;;;;5.38;3.92;;;20.00;74.70;;;;;;5096365;28;20040;-69
2021/08/20 01:35:36;;;;;;;5.22;4.10;;;20.00;74.70;;;;;;5096469;28;20044;-69
2021/08/20 01:38:02;;;;;;;4.90;3.90;;;20.00;74.70;;;;;;5096312;28;20449;-69
2021/08/20 01:40:29;;;;;;;5.15;4.28;;;20.00;74.70;;;;;;5096017;28;20108;-69
2021/08/20 01:42:55;;;;;;;5.57;4.07;;;20.00;74.70;;;;;;5096173;28;20474;-69
2021/08/20 01:45:21;;;;;;;5.57;4.03;;;20.00;74.70;;;;;;5095751;28;20051;-69
2021/08/20 01:47:47;;;;;;;5.30;4.60;;;20.00;74.70;;;;;;5094128;28;20044;-69
2021/08/20 01:50:13;;;;;;;6.45;4.05;;;20.00;74.70;;;;;;5096171;28;20131;-69
2021/08/20 01:52:39;;;;;;;4.95;4.20;;;20.00;74.70;;;;;;5096093;28;20067;-69
2021/08/20 01:55:10;;;;;;;4.43;3.97;;;20.00;74.70;;;;;;5096118;28;20081;-69
2021/08/20 01:57:44;;;;;;;4.72;3.95;;;20.00;74.70;;;;;;5095505;28;20044;-69
2021/08/20 02:00:11;;;;;;;5.40;4.50;;;20.00;74.70;;;;;;5095913;28;20052;-69
2021/08/20 02:02:37;;;;;;;5.20;4.43;;;20.00;74.70;;;;;;5082688;28;20055;-69
2021/08/20 02:05:04;;;;;;;5.47;4.38;;;20.00;74.80;;;;;;5090946;28;20037;-69
2021/08/20 02:07:34;;;;;;;4.47;4.03;;;20.00;74.70;;;;;;5075213;28;20439;-69
2021/08/20 02:10:05;;;;;;;7.15;4.80;;;20.00;74.70;;;;;;5075455;28;20048;-69
2021/08/20 02:12:30;;;;;;;4.55;4.13;;;20.00;74.80;;;;;;5075588;28;20036;-69
2021/08/20 02:14:56;;;;;;;4.93;4.43;;;20.00;74.70;;;;;;5075438;28;20124;-69
2021/08/20 02:17:22;;;;;;;5.78;3.83;;;20.00;74.70;;;;;;5075135;28;20337;-69
2021/08/20 02:19:48;;;;;;;6.38;4.57;;;20.00;74.70;;;;;;5075166;28;20044;-69
2021/08/20 02:22:14;;;;;;;5.15;4.60;;;20.00;74.70;;;;;;5075345;28;20451;-69
2021/08/20 02:24:39;;;;;;;7.53;4.32;;;20.00;74.70;;;;;;5057353;28;20409;-69
2021/08/20 02:27:05;;;;;;;5.07;4.18;;;20.00;74.70;;;;;;5074996;28;20111;-69
2021/08/20 02:29:31;;;;;;;5.20;4.15;;;20.00;74.70;;;;;;5075566;28;20044;-69
2021/08/20 02:31:57;;;;;;;5.90;4.25;;;20.00;74.70;;;;;;5089400;28;20048;-69
2021/08/20 02:34:22;;;;;;;4.85;4.35;;;20.00;74.70;;;;;;5095465;28;20036;-69
2021/08/20 02:36:48;;;;;;;4.68;4.07;;;20.00;74.80;;;;;;5095298;28;20115;-69
2021/08/20 02:39:14;;;;;;;5.15;4.00;;;19.90;74.70;;;;;;5095376;28;20061;-69
2021/08/20 02:41:40;;;;;;;5.65;4.57;;;20.00;74.70;;;;;;5094706;28;20054;-69
2021/08/20 02:44:06;;;;;;;5.45;4.47;;;20.00;74.80;;;;;;5095080;28;20097;-69
2021/08/20 02:46:33;;;;;;;5.40;4.22;;;19.90;74.70;;;;;;5095262;28;20059;-68
2021/08/20 02:48:59;;;;;;;4.45;3.95;;;19.90;74.70;;;;;;5095287;28;20036;-69
2021/08/20 02:51:25;;;;;;;5.13;4.25;;;19.90;74.70;;;;;;5095237;28;20111;-69
2021/08/20 02:53:51;;;;;;;5.50;4.30;;;19.90;74.70;;;;;;5095008;28;20036;-69
2021/08/20 02:56:17;;;;;;;5.68;4.35;;;20.00;74.80;;;;;;5094785;28;20054;-69
2021/08/20 02:58:42;;;;;;;4.93;4.43;;;19.90;74.70;;;;;;5094853;28;20050;-69
2021/08/20 03:01:08;;;;;;;5.10;3.80;;;19.90;74.70;;;;;;5087014;28;20056;-69
2021/08/20 03:03:34;;;;;;;6.18;4.60;;;19.90;74.70;;;;;;5074752;28;20358;-69
2021/08/20 03:06:01;;;;;;;5.82;4.28;;;19.90;74.70;;;;;;5075314;28;20091;-69
2021/08/20 03:08:26;;;;;;;6.15;4.43;;;19.90;75.30;;;;;;5074647;28;20064;-69
2021/08/20 03:10:53;;;;;;;5.07;3.95;;;19.90;74.70;;;;;;5074963;28;20040;-69
2021/08/20 03:13:19;;;;;;;4.82;4.32;;;19.90;74.70;;;;;;5074658;28;20068;-69
2021/08/20 03:15:45;;;;;;;6.40;4.40;;;19.90;74.70;;;;;;5077437;28;20091;-69
2021/08/20 03:18:10;;;;;;;6.05;4.50;;;19.90;74.70;;;;;;5078675;28;20113;-69
2021/08/20 03:20:36;;;;;;;5.80;4.85;;;19.90;74.60;;;;;;5078609;28;20086;-69
2021/08/20 03:23:02;;;;;;;5.55;4.15;;;19.90;74.60;;;;;;5078572;28;20409;-69
2021/08/20 03:25:28;;;;;;;6.30;4.28;;;19.90;74.60;;;;;;5078036;28;20351;-69
2021/08/20 03:27:54;;;;;;;4.82;4.03;;;19.90;74.60;;;;;;5078122;28;20055;-69
2021/08/20 03:30:20;;;;;;;5.43;4.07;;;20.00;74.70;;;;;;5080854;28;20340;-69
2021/08/20 03:32:46;;;;;;;5.65;4.03;;;19.90;74.60;;;;;;5098303;28;20044;-69
2021/08/20 03:35:14;;;;;;;5.05;4.10;;;19.90;74.60;;;;;;5098650;28;20048;-69
2021/08/20 03:37:40;;;;;;;5.32;4.18;;;19.90;74.70;;;;;;5098356;28;20052;-69
2021/08/20 03:40:07;;;;;;;4.32;3.58;;;19.90;74.70;;;;;;5098660;28;20036;-69
2021/08/20 03:42:33;;;;;;;5.82;4.22;;;19.90;74.60;;;;;;5098101;28;20346;-69
2021/08/20 03:44:59;;;;;;;5.13;4.10;;;19.90;74.60;;;;;;5098440;28;20032;-69
2021/08/20 03:47:24;;;;;;;5.30;4.10;;;19.90;74.60;;;;;;5098328;28;20060;-69
2021/08/20 03:49:50;;;;;;;5.03;4.28;;;19.90;74.70;;;;;;5098499;28;20047;-69
2021/08/20 03:52:17;;;;;;;4.82;3.67;;;19.90;74.60;;;;;;5098922;28;20131;-69
2021/08/20 03:54:43;;;;;;;4.65;4.13;;;19.90;74.60;;;;;;5097791;28;20043;-69
2021/08/20 03:57:08;;;;;;;5.93;3.83;;;19.90;74.70;;;;;;5098137;28;20036;-69
2021/08/20 03:59:34;;;;;;;5.53;4.15;;;19.90;74.70;;;;;;5097929;28;20060;-69
2021/08/20 04:02:04;;;;;;;4.82;3.85;;;19.90;74.70;;;;;;5082467;28;20041;-69
2021/08/20 04:04:30;;;;;;;6.63;4.05;;;19.90;74.70;;;;;;5097989;28;20351;-69
2021/08/20 04:06:57;;;;;;;4.55;3.97;;;19.90;74.70;;;;;;5097790;28;20078;-69
2021/08/20 04:09:23;;;;;;;6.10;3.85;;;19.90;74.70;;;;;;5098208;28;20064;-69
2021/08/20 04:11:49;;;;;;;5.00;4.30;;;19.90;74.70;;;;;;5098315;28;20076;-69
2021/08/20 04:14:14;;;;;;;6.47;4.57;;;19.90;74.80;;;;;;5098406;28;20052;-69
2021/08/20 04:16:42;;;;;;;4.55;3.90;;;19.90;74.80;;;;;;5097672;28;20113;-69
2021/08/20 04:19:08;;;;;;;5.20;4.00;;;19.90;74.80;;;;;;5097763;28;20071;-69
2021/08/20 04:21:34;;;;;;;5.45;4.15;;;19.90;74.70;;;;;;5098268;28;20115;-69
2021/08/20 04:24:00;;;;;;;4.55;4.03;;;19.90;74.80;;;;;;5097578;28;20116;-69
2021/08/20 04:26:27;;;;;;;4.32;3.88;;;19.90;74.80;;;;;;5096375;28;20427;-69
2021/08/20 04:28:53;;;;;;;4.47;3.78;;;19.90;74.80;;;;;;5097210;28;20130;-69
2021/08/20 04:31:19;;;;;;;5.65;4.18;;;19.90;74.80;;;;;;5097464;28;20111;-68
2021/08/20 04:33:45;;;;;;;5.10;4.05;;;19.80;74.70;;;;;;5081948;28;20148;-70
2021/08/20 04:36:11;;;;;;;4.78;4.28;;;19.90;74.80;;;;;;5076935;28;20044;-69
2021/08/20 04:38:39;;;;;;;5.20;4.07;;;19.80;74.80;;;;;;5077302;28;20040;-69
2021/08/20 04:41:06;;;;;;;5.28;4.32;;;19.80;74.80;;;;;;5076797;28;20351;-69
2021/08/20 04:43:32;;;;;;;6.60;4.10;;;19.90;74.80;;;;;;5076948;28;20423;-69
2021/08/20 04:45:57;;;;;;;5.03;4.10;;;19.90;74.80;;;;;;5077283;28;20048;-69
2021/08/20 04:48:23;;;;;;;5.65;4.25;;;19.90;74.80;;;;;;5076883;28;20048;-69
2021/08/20 04:50:53;;;;;;;5.93;4.10;;;19.80;74.70;;;;;;5076994;28;20462;-69
2021/08/20 04:53:20;;;;;;;4.82;3.95;;;19.80;74.70;;;;;;5076640;28;20067;-68
2021/08/20 04:55:46;;;;;;;5.00;4.07;;;19.80;74.70;;;;;;5076637;28;20048;-69
2021/08/20 04:58:12;;;;;;;6.07;4.30;;;19.80;74.80;;;;;;5076948;28;20129;-69
2021/08/20 05:00:43;;;;;;;5.40;4.10;;;19.80;74.80;;;;;;5076439;28;20096;-68
2021/08/20 05:03:08;;;;;;;5.03;4.00;;;19.90;74.80;;;;;;5078774;28;20048;-69
2021/08/20 05:05:34;;;;;;;4.80;3.80;;;19.90;74.80;;;;;;5075958;28;20055;-69
2021/08/20 05:08:01;;;;;;;4.43;3.83;;;19.80;74.70;;;;;;5076324;28;20116;-69
2021/08/20 05:10:29;;;;;;;5.10;3.90;;;19.80;74.70;;;;;;5076390;28;20044;-69
2021/08/20 05:12:55;;;;;;;5.22;3.95;;;19.80;74.70;;;;;;5076600;28;20111;-67
2021/08/20 05:15:26;;;;;;;4.32;3.75;;;19.80;74.70;;;;;;5076321;28;20124;-68
2021/08/20 05:17:53;;;;;;;6.82;4.00;;;19.80;74.70;;;;;;5076284;28;20040;-70
2021/08/20 05:20:18;;;;;;;5.97;4.28;;;19.90;74.70;;;;;;5075885;28;20431;-70
2021/08/20 05:22:47;;;;;;;7.57;4.40;;;19.90;74.70;;;;;;5076670;28;20048;-70
2021/08/20 05:25:13;;;;;;;7.20;4.32;;;19.90;74.70;;;;;;5076777;28;20051;-67
2021/08/20 05:27:39;;;;;;;7.95;4.75;;;19.90;74.60;;;;;;5071265;28;20519;-69
2021/08/20 05:30:06;;;;;;;8.55;4.70;;;19.90;74.60;;;;;;5095657;28;20111;-70
2021/08/20 05:32:32;;;;;;;6.90;4.32;;;19.90;74.60;;;;;;5107921;28;20054;-69
2021/08/20 05:34:58;;;;;;;7.18;4.85;;;19.90;74.60;;;;;;5096391;28;20040;-69
2021/08/20 05:37:24;;;;;;;6.75;4.68;;;19.90;74.80;;;;;;5081117;28;20109;-74
2021/08/20 05:39:50;;;;;;;8.45;5.18;;;19.90;74.70;;;;;;5096066;28;20135;-71
2021/08/20 05:42:18;;;;;;;6.93;5.00;;;19.90;74.70;;;;;;5087125;28;20198;-70
2021/08/20 05:44:45;;;;;;;5.80;4.30;;;20.00;74.70;;;;;;5075076;28;20447;-72
2021/08/20 05:47:10;;;;;;;6.57;5.18;;;19.90;74.60;;;;;;5075576;28;20101;-70
2021/08/20 05:49:36;;;;;;;6.55;4.93;;;19.90;74.70;;;;;;5076083;28;20059;-70
2021/08/20 05:52:02;;;;;;;8.95;5.47;;;19.90;74.80;;;;;;5076763;28;20059;-70
2021/08/20 05:54:28;;;;;;;9.88;6.15;;;19.90;74.90;;;;;;5084727;28;20055;-70
2021/08/20 05:56:54;;;;;;;7.68;6.32;;;19.90;75.00;;;;;;5085275;28;20048;-70
2021/08/20 05:59:20;;;;;;;11.63;6.90;;;19.90;75.10;;;;;;5095586;28;20073;-72
2021/08/20 06:01:46;;;;;;;9.45;6.75;;;19.90;75.20;;;;;;5089399;28;20051;-71
2021/08/20 06:04:12;;;;;;;8.63;6.60;;;19.90;75.30;;;;;;5093765;28;20044;-70
2021/08/20 06:06:38;;;;;;;9.23;6.78;;;19.80;75.80;;;;;;5088941;28;20040;-70
2021/08/20 06:09:08;;;;;;;10.63;7.95;;;19.90;75.30;;;;;;5076317;28;20064;-69
2021/08/20 06:11:34;;;;;;;12.52;8.15;;;19.80;75.60;;;;;;5075669;28;20074;-70
2021/08/20 06:14:00;;;;;;;11.23;8.57;;;19.80;75.60;;;;;;5087748;28;20119;-70
2021/08/20 06:16:26;;;;;;;14.85;9.75;;;19.80;75.80;;;;;;5095005;28;20040;-70
2021/08/20 06:18:52;;;;;;;16.30;10.40;;;19.80;76.00;;;;;;5087459;28;20047;-73
2021/08/20 06:21:18;;;;;;;12.02;8.90;;;19.80;76.30;;;;;;5075184;28;20037;-71
2021/08/20 06:23:44;;;;;;;16.35;11.15;;;19.80;76.30;;;;;;5076253;28;20056;-71
2021/08/20 06:26:10;;;;;;;12.23;10.18;;;19.70;76.50;;;;;;5075105;28;20048;-73
2021/08/20 06:28:36;;;;;;;13.95;10.23;;;19.70;76.60;;;;;;5075087;28;20439;-73
2021/08/20 06:31:04;;;;;;;12.27;9.23;;;19.70;76.70;;;;;;5079714;28;20065;-73
2021/08/20 06:33:31;;;;;;;11.80;8.82;;;19.70;76.50;;;;;;5086007;28;20036;-72
2021/08/20 06:35:57;;;;;;;11.88;9.43;;;19.70;76.50;;;;;;5080346;28;20043;-70
2021/08/20 06:38:23;;;;;;;12.52;9.93;;;19.70;76.60;;;;;;5094455;28;20044;-70
2021/08/20 06:40:49;;;;;;;15.93;11.50;;;19.70;76.70;;;;;;5095563;28;20036;-71
2021/08/20 06:43:15;;;;;;;16.92;10.73;;;19.70;76.90;;;;;;5090560;28;20156;-70
2021/08/20 06:45:42;;;;;;;19.08;12.40;;;19.70;77.00;;;;;;5075147;28;20044;-70
2021/08/20 06:48:08;;;;;;;19.33;11.10;;;19.70;77.40;;;;;;5074917;28;20158;-69
2021/08/20 06:50:41;;;;;;;14.45;9.90;;;19.70;77.40;;;;;;5077476;28;20047;-69
2021/08/20 06:53:07;;;;;;;14.18;10.60;;;19.60;77.20;;;;;;5088971;28;20062;-69
2021/08/20 06:55:33;;;;;;;22.45;12.45;;;19.70;77.20;;;;;;5086920;28;20428;-70
2021/08/20 06:57:59;;;;;;;16.00;12.07;;;19.70;77.10;;;;;;5078907;28;20036;-69
2021/08/20 07:00:25;;;;;;;15.85;11.52;;;19.70;77.30;;;;;;5083462;28;20080;-69
2021/08/20 07:02:51;;;;;;;16.42;12.02;;;19.60;77.30;;;;;;5087931;28;20044;-70
2021/08/20 07:05:17;;;;;;;18.60;12.55;;;19.60;77.30;;;;;;5094037;28;20047;-68
2021/08/20 07:07:43;;;;;;;17.23;11.90;;;19.60;77.30;;;;;;5099070;28;20417;-69
2021/08/20 07:10:15;;;;;;;16.30;12.40;;;19.60;77.30;;;;;;5099172;28;20122;-69
2021/08/20 07:12:42;;;;;;;19.00;12.85;;;19.60;77.40;;;;;;5098482;28;20317;-69
2021/08/20 07:15:10;;;;;;;19.75;13.15;;;19.60;77.60;;;;;;5096185;28;20040;-69
2021/08/20 07:17:36;;;;;;;16.38;12.05;;;19.70;77.90;;;;;;5088494;28;20046;-69
2021/08/20 07:20:03;;;;;;;18.95;13.27;;;19.70;77.90;;;;;;5088371;28;20354;-72
2021/08/20 07:22:29;;;;;;;19.15;13.07;;;19.60;77.90;;;;;;5088072;28;20051;-70
2021/08/20 07:24:54;;;;;;;17.00;11.05;;;19.70;78.00;;;;;;5080967;28;20040;-70
2021/08/20 07:27:20;;;;;;;12.82;9.95;;;19.70;78.10;;;;;;5077928;28;20044;-72
2021/08/20 07:29:47;;;;;;;16.23;10.65;;;19.70;78.10;;;;;;5078841;28;20040;-70
2021/08/20 07:32:14;;;;;;;14.05;9.88;;;19.70;78.40;;;;;;5078163;28;20076;-70
2021/08/20 07:34:40;;;;;;;18.92;10.73;;;19.80;78.30;;;;;;5078329;28;20119;-71
2021/08/20 07:37:06;;;;;;;16.77;9.10;;;19.80;78.90;;;;;;5083270;28;20071;-70
2021/08/20 07:39:33;;;;;;;16.58;9.52;;;19.80;78.50;;;;;;5078279;28;20173;-71
2021/08/20 07:41:59;;;;;;;16.48;8.63;;;19.80;78.40;;;;;;5079853;28;20123;-76
2021/08/20 07:44:25;;;;;;;11.63;7.63;;;19.80;78.40;;;;;;5092066;28;20354;-71
2021/08/20 07:46:51;;;;;;;14.43;7.70;;;19.80;78.50;;;;;;5098184;28;20055;-71
2021/08/20 07:49:18;;;;;;;20.40;9.50;;;19.90;78.60;;;;;;5095029;28;20079;-71
2021/08/20 07:51:43;;;;;;;23.90;9.05;;;19.90;78.60;;;;;;5077770;28;20055;-70
2021/08/20 07:54:09;;;;;;;15.45;8.35;;;19.90;78.50;;;;;;5077927;28;20037;-71
2021/08/20 07:56:35;;;;;;;15.65;8.07;;;19.90;78.50;;;;;;5077644;28;20048;-71
2021/08/20 07:59:01;;;;;;;16.63;8.18;;;19.90;78.40;;;;;;5077612;28;20127;-71
2021/08/20 08:01:27;;;;;;;12.85;7.10;;;20.00;78.40;;;;;;5077439;28;20057;-71
2021/08/20 08:03:57;;;;;;;14.70;7.07;;;20.00;78.30;;;;;;5088529;28;20355;-71
2021/08/20 08:06:26;;;;;;;14.43;6.70;;;20.00;78.30;;;;;;5097589;28;20124;-71
2021/08/20 08:08:52;;;;;;;14.40;7.28;;;20.00;78.20;;;;;;5097951;28;20047;-71
2021/08/20 08:11:19;;;;;;;12.65;6.68;;;20.00;78.10;;;;;;5097852;28;20063;-71
2021/08/20 08:13:46;;;;;;;11.15;6.78;;;20.00;78.10;;;;;;5097717;28;20058;-71
2021/08/20 08:16:12;;;;;;;14.80;6.15;;;20.00;78.00;;;;;;5098121;28;20044;-71
2021/08/20 08:18:38;;;;;;;13.30;6.18;;;20.00;78.00;;;;;;5097725;28;20067;-71
2021/08/20 08:21:04;;;;;;;11.77;6.22;;;20.00;78.00;;;;;;5097663;28;20059;-72
2021/08/20 08:23:30;;;;;;;10.95;5.97;;;20.00;78.00;;;;;;5097445;28;20040;-71
2021/08/20 08:25:56;;;;;;;10.52;5.53;;;20.00;77.90;;;;;;5097362;28;20071;-71
2021/08/20 08:28:23;;;;;;;9.48;5.82;;;20.00;77.90;;;;;;5097388;28;20081;-71
2021/08/20 08:30:50;;;;;;;9.52;5.43;;;20.10;77.90;;;;;;5097760;28;20036;-71
2021/08/20 08:33:17;;;;;;;8.90;5.88;;;20.10;77.90;;;;;;5093587;28;20056;-71
2021/08/20 08:35:43;;;;;;;7.35;5.07;;;20.10;77.80;;;;;;5097570;28;20036;-72
2021/08/20 08:38:12;;;;;;;8.27;5.28;;;20.10;77.80;;;;;;5097386;28;20328;-71
2021/08/20 08:40:41;;;;;;;7.18;4.32;;;20.10;77.80;;;;;;5097129;28;20463;-71
2021/08/20 08:43:08;;;;;;;8.20;5.05;;;20.10;77.80;;;;;;5097218;28;20063;-71
2021/08/20 08:45:35;;;;;;;8.35;4.75;;;20.10;77.70;;;;;;5097378;28;20039;-71
2021/08/20 08:48:04;;;;;;;7.45;4.57;;;20.10;77.70;;;;;;5097397;28;20071;-71
2021/08/20 08:50:30;;;;;;;6.80;4.72;;;20.10;77.70;;;;;;5097269;28;20459;-71
2021/08/20 08:52:57;;;;;;;7.13;4.15;;;20.10;77.60;;;;;;5096999;28;20077;-71
2021/08/20 08:55:23;;;;;;;8.18;4.80;;;20.10;77.60;;;;;;5097305;28;20051;-71
2021/08/20 08:57:48;;;;;;;8.05;4.82;;;20.10;77.60;;;;;;5096705;28;20181;-70
2021/08/20 09:00:30;;;;;;;9.02;4.57;;;20.10;77.60;;;;;;5096663;28;20075;-71
2021/08/20 09:02:57;;;;;;;7.95;4.78;;;20.10;77.60;;;;;;5095943;28;20040;-71
2021/08/20 09:05:23;;;;;;;5.80;3.80;;;20.10;77.60;;;;;;5076450;28;20044;-71
2021/08/20 09:07:54;;;;;;;6.90;4.20;;;20.10;77.50;;;;;;5076563;28;20055;-71
2021/08/20 09:10:25;;;;;;;5.63;3.60;;;20.20;77.50;;;;;;5076296;28;20055;-71
2021/08/20 09:12:59;;;;;;;6.85;4.10;;;20.20;77.40;;;;;;5076241;28;20128;-71
2021/08/20 09:15:26;;;;;;;;;;;20.20;77.40;;;;;;5076984;28;20060;-72
2021/08/20 09:17:58;;;;;;;6.07;3.67;;;20.20;77.30;;;;;;5075830;28;20246;-71
2021/08/20 09:20:32;;;;;;;5.60;3.78;;;20.20;77.40;;;;;;5076758;28;20072;-71
2021/08/20 09:23:15;;;;;;;7.20;3.92;;;20.20;77.40;;;;;;5076080;28;20044;-71
2021/08/20 09:25:45;;;;;;;4.90;3.95;;;20.20;77.40;;;;;;5075640;28;20531;-71
2021/08/20 09:28:24;;;;;;;5.63;3.78;;;20.20;77.30;;;;;;5076263;28;20051;-71
2021/08/20 09:30:59;;;;;;;4.85;3.92;;;20.20;77.40;;;;;;5076009;28;20119;-71
2021/08/20 09:33:27;;;;;;;6.13;3.90;;;20.20;77.40;;;;;;5082568;28;20307;-71
2021/08/20 09:36:08;;;;;;;5.80;3.50;;;20.20;77.30;;;;;;5096295;28;20060;-71
2021/08/20 09:38:39;;;;;;;4.63;3.40;;;20.20;77.30;;;;;;5096434;28;20046;-71
2021/08/20 09:41:10;;;;;;;5.32;3.50;;;20.20;77.30;;;;;;5096215;28;20476;-71
2021/08/20 09:43:37;;;;;;;4.47;3.25;;;20.20;77.30;;;;;;5096056;28;20047;-72
2021/08/20 09:46:08;;;;;;;5.63;3.67;;;20.30;77.40;;;;;;5096029;28;20101;-71
2021/08/20 09:48:40;;;;;;;6.50;3.78;;;20.30;77.40;;;;;;5096293;28;20043;-71
2021/08/20 09:51:06;;;;;;;7.80;3.33;;;20.30;77.30;;;;;;5096093;28;20074;-71
2021/08/20 09:53:32;;;;;;;5.18;2.97;;;20.30;77.30;;;;;;5096395;28;20044;-71
2021/08/20 09:56:02;;;;;;;4.75;3.38;;;20.30;77.30;;;;;;5096140;28;20415;-71
2021/08/20 09:58:32;;;;;;;5.10;3.60;;;20.30;77.30;;;;;;5096054;28;20036;-72
2021/08/20 10:01:01;;;;;;;6.93;3.92;;;20.30;77.30;;;;;;5095778;28;20147;-71
2021/08/20 10:03:28;;;;;;;4.22;3.35;;;20.30;77.30;;;;;;5088463;28;20093;-71
2021/08/20 10:05:55;;;;;;;5.40;3.42;;;20.30;77.30;;;;;;5075921;28;20040;-71
2021/08/20 10:08:21;;;;;;;3.58;3.25;;;20.30;77.20;;;;;;5076502;28;20049;-71
2021/08/20 10:10:49;;;;;;;4.85;3.15;;;20.30;77.20;;;;;;5075396;28;20059;-71
2021/08/20 10:13:17;;;;;;;4.22;3.38;;;20.30;77.10;;;;;;5075372;28;20501;-71
2021/08/20 10:15:43;;;;;;;3.40;2.90;;;20.30;77.10;;;;;;5075548;28;20060;-71
2021/08/20 10:18:13;;;;;;;5.30;3.30;;;20.30;77.10;;;;;;5075757;28;20044;-71
2021/08/20 10:20:39;;;;;;;4.32;2.33;;;20.30;77.10;;;;;;5075251;28;20036;-71
2021/08/20 10:23:05;;;;;;;7.18;3.25;;;20.30;77.10;;;;;;5075282;28;20055;-71
2021/08/20 10:25:32;;;;;;;4.47;3.40;;;20.30;77.00;;;;;;5074550;28;20344;-71
2021/08/20 10:27:59;;;;;;;4.57;3.30;;;20.30;77.00;;;;;;5075280;28;20395;-71
2021/08/20 10:30:25;;;;;;;5.07;2.90;;;20.30;77.00;;;;;;5075438;28;20347;-71
2021/08/20 10:33:07;;;;;;;4.75;2.90;;;20.30;77.00;;;;;;5075843;28;20436;-71
2021/08/20 10:35:52;;;;;;;3.88;2.72;;;20.30;76.90;;;;;;5074929;28;20428;-71
2021/08/20 10:38:29;;;;;;;5.00;2.95;;;20.40;76.90;;;;;;5091359;28;20108;-71
2021/08/20 10:41:08;;;;;;;4.97;3.35;;;20.30;76.90;;;;;;5095979;28;20044;-72
2021/08/20 10:44:05;;;;;;;4.32;3.05;;;20.40;76.90;;;;;;5095744;28;20047;-71
2021/08/20 10:46:34;;;;;;;3.83;3.30;;;20.40;76.90;;;;;;5095264;28;20040;-71
2021/08/20 10:49:20;;;;;;;5.93;3.10;;;20.40;76.90;;;;;;5095293;28;20442;-72
2021/08/20 10:51:52;;;;;;;4.32;3.20;;;20.40;76.80;;;;;;5095483;28;20111;-71
2021/08/20 10:54:31;;;;;;;4.65;3.13;;;20.40;76.80;;;;;;5095461;28;20046;-71
2021/08/20 10:57:01;;;;;;;3.80;3.08;;;20.40;76.80;;;;;;5095757;28;20059;-72
2021/08/20 10:59:36;;;;;;;5.43;2.80;;;20.40;76.80;;;;;;5094446;28;20044;-71
2021/08/20 11:02:20;;;;;;;5.47;3.13;;;20.40;76.70;;;;;;5095049;28;20439;-72
2021/08/20 11:05:14;;;;;;;4.80;2.80;;;20.40;76.70;;;;;;5075015;28;20043;-71
2021/08/20 11:07:41;;;;;;;4.07;3.20;;;20.40;76.70;;;;;;5071663;28;20063;-72
2021/08/20 11:10:10;;;;;;;4.47;2.80;;;20.40;76.80;;;;;;5074751;28;20049;-72
2021/08/20 11:12:51;;;;;;;4.35;3.10;;;20.40;76.70;;;;;;5074396;28;20041;-72
2021/08/20 11:15:18;;;;;;;5.72;3.13;;;20.40;76.70;;;;;;5075061;28;20111;-72
2021/08/20 11:18:04;;;;;;;3.78;3.10;;;20.40;76.70;;;;;;5074853;28;20418;-71
2021/08/20 11:20:39;;;;;;;4.03;3.05;;;20.40;76.60;;;;;;5074917;28;20049;-71
2021/08/20 11:23:05;;;;;;;3.97;2.90;;;20.40;76.60;;;;;;5074809;28;20493;-71
2021/08/20 11:25:43;;;;;;;4.35;2.85;;;20.50;76.60;;;;;;5075047;28;20451;-71
2021/08/20 11:28:27;;;;;;;4.40;2.95;;;20.40;76.60;;;;;;5074761;28;20074;-71
2021/08/20 11:30:57;;;;;;;;;;;20.40;76.50;;;;;;5075276;28;20047;-71
2021/08/20 11:33:33;;;;;;;4.57;2.83;;;20.40;76.40;;;;;;5064878;28;19927;-71
2021/08/20 11:36:08;;;;;;;4.22;2.63;;;20.50;76.70;;;;;;5096214;28;20164;-71
2021/08/20 11:38:42;;;;;;;5.13;3.03;;;20.50;76.60;;;;;;5098625;28;20468;-71
2021/08/20 11:41:22;;;;;;;;;;;20.50;76.60;;;;;;5099036;28;20035;-71
2021/08/20 11:43:51;;;;;;;3.67;2.60;;;20.50;76.50;;;;;;5099184;28;19972;-72
2021/08/20 11:46:18;;;;;;;3.95;2.95;;;20.50;76.60;;;;;;5098711;28;20036;-71
2021/08/20 11:48:52;;;;;;;5.85;2.47;;;20.50;76.60;;;;;;5098146;28;20380;-71
2021/08/20 11:51:34;;;;;;;3.20;2.15;;;20.50;76.50;;;;;;5098299;28;20446;-71
2021/08/20 11:54:05;;;;;;;5.75;2.83;;;20.50;76.40;;;;;;5098720;28;20040;-71
2021/08/20 11:56:32;;;;;;;4.05;2.88;;;20.50;76.50;;;;;;5097999;28;20051;-71
2021/08/20 11:59:09;;;;;;;3.53;2.70;;;20.50;76.40;;;;;;5098408;28;20391;-72
2021/08/20 12:01:38;;;;;;;3.75;2.45;;;20.50;76.40;;;;;;5098330;28;20040;-72
2021/08/20 12:04:04;;;;;;;5.18;3.15;;;20.50;76.40;;;;;;5081570;28;20382;-72
2021/08/20 12:06:31;;;;;;;3.95;2.47;;;20.50;76.40;;;;;;5077769;28;20040;-72
2021/08/20 12:09:11;;;;;;;4.18;2.72;;;20.50;76.40;;;;;;5077447;28;20033;-72
2021/08/20 12:11:38;;;;;;;7.10;4.25;;;20.50;76.40;;;;;;5080998;28;20048;-75
2021/08/20 12:14:04;;;;;;;7.80;4.10;;;20.50;76.50;;;;;;5077674;28;20055;-76
2021/08/20 12:16:39;;;;;;;8.13;4.25;;;20.50;76.60;;;;;;5084884;28;20495;-73
2021/08/20 12:19:18;;;;;;;10.38;4.60;;;20.60;76.70;;;;;;5086455;28;20043;-73
2021/08/20 12:21:47;;;;;;;10.95;6.13;;;20.60;76.60;;;;;;5086842;28;20124;-73
2021/08/20 12:24:15;;;;;;;6.70;4.22;;;20.60;76.80;;;;;;5085688;28;20094;-72
2021/08/20 12:26:40;;;;;;;5.85;4.10;;;20.50;76.90;;;;;;5086740;28;20068;-72
2021/08/20 12:29:17;;;;;;;7.35;4.05;;;20.50;77.00;;;;;;5087787;28;20059;-72
2021/08/20 12:31:55;;;;;;;7.22;4.50;;;20.50;77.10;;;;;;5087292;28;20051;-72
2021/08/20 12:34:33;;;;;;;9.65;5.13;;;20.50;77.10;;;;;;5092657;28;20047;-73
2021/08/20 12:37:01;;;;;;;6.55;4.25;;;20.50;77.10;;;;;;5097325;28;20046;-72
2021/08/20 12:39:38;;;;;;;6.75;3.67;;;20.50;77.20;;;;;;5090906;28;20052;-71
2021/08/20 12:42:24;;;;;;;11.77;4.10;;;20.60;77.20;;;;;;5085847;28;20455;-72
2021/08/20 12:45:18;;;;;;;7.28;4.00;;;20.50;77.20;;;;;;5087248;28;20108;-72
2021/08/20 12:47:59;;;;;;;6.45;3.50;;;20.50;77.20;;;;;;5085785;28;20352;-72
2021/08/20 12:50:25;;;;;;;7.32;3.35;;;20.50;77.20;;;;;;5086705;28;20074;-72
2021/08/20 12:53:03;;;;;;;5.53;3.38;;;20.50;77.20;;;;;;5085113;28;20390;-72